createdAt,value
2024-01-05T00:01:37.728Z,251.43
2024-01-05T00:04:10.629Z,216.82
2024-01-05T00:06:43.253Z,224.77
2024-01-05T00:09:15.589Z,233.25
2024-01-05T00:11:47.728Z,228.05
2024-01-05T00:14:20.030Z,245.13
2024-01-05T00:16:52.674Z,241.98
2024-01-05T00:21:56.873Z,252.77
2024-01-05T00:24:29.548Z,257.70
2024-01-05T00:29:34.836Z,248.75
2024-01-05T00:34:36.646Z,239.00
2024-01-05T00:37:06.341Z,241.30
2024-01-05T00:39:35.800Z,263.58
2024-01-05T00:42:06.747Z,235.15
2024-01-05T00:44:36.284Z,247.93
2024-01-05T00:47:05.477Z,266.42
2024-01-05T00:49:35.045Z,278.52
2024-01-05T00:52:04.632Z,262.92
2024-01-05T00:54:34.122Z,282.13
2024-01-05T00:57:03.648Z,269.27
2024-01-05T00:59:33.055Z,262.92
2024-01-05T01:02:02.435Z,240.30
2024-01-05T01:04:31.714Z,249.05
2024-01-05T01:07:01.363Z,256.60
2024-01-05T01:09:30.610Z,278.58
2024-01-05T01:12:00.391Z,238.80
2024-01-05T01:14:29.652Z,234.27
2024-01-05T01:16:59.021Z,209.68
2024-01-05T01:19:28.319Z,207.00
2024-01-05T01:21:58.441Z,208.60
2024-01-05T01:24:27.901Z,212.60
2024-01-05T01:26:57.069Z,212.95
2024-01-05T01:29:27.589Z,203.93
2024-01-05T01:31:57.008Z,214.63
2024-01-05T01:34:26.315Z,214.45
2024-01-05T01:36:56.276Z,206.82
2024-01-05T01:39:25.644Z,187.77
2024-01-05T01:41:55.141Z,193.77
2024-01-05T01:44:24.396Z,194.63
2024-01-05T01:46:54.620Z,207.05
2024-01-05T01:49:24.878Z,196.80
2024-01-05T01:51:54.900Z,216.15
2024-01-05T01:54:24.582Z,175.68
2024-01-05T01:56:53.878Z,207.85
2024-01-05T01:59:23.304Z,185.52
2024-01-05T02:01:52.605Z,198.15
2024-01-05T02:04:22.476Z,200.43
2024-01-05T02:06:51.926Z,211.35
2024-01-05T02:09:21.295Z,203.85
2024-01-05T02:11:50.809Z,196.65
2024-01-05T02:14:20.507Z,207.07
2024-01-05T02:16:49.748Z,217.15
2024-01-05T02:19:19.272Z,213.35
2024-01-05T02:21:50.282Z,206.93
2024-01-05T02:24:19.777Z,208.23
2024-01-05T02:26:49.396Z,189.70
2024-01-05T02:29:24.135Z,193.88
2024-01-05T02:31:53.835Z,230.23
2024-01-05T02:34:23.240Z,218.95
2024-01-05T02:36:52.690Z,222.60
2024-01-05T02:39:22.069Z,216.20
2024-01-05T02:41:51.532Z,203.18
2024-01-05T02:44:20.709Z,213.52
2024-01-05T02:46:50.357Z,203.85
2024-01-05T02:49:19.904Z,225.23
2024-01-05T02:51:49.507Z,196.27
2024-01-05T02:54:18.677Z,224.45
2024-01-05T02:56:48.087Z,201.20
2024-01-05T02:59:17.546Z,218.10
2024-01-05T03:01:50.103Z,213.88
2024-01-05T03:04:19.562Z,202.50
2024-01-05T03:06:48.842Z,197.50
2024-01-05T03:09:18.285Z,235.48
2024-01-05T03:11:47.992Z,226.00
2024-01-05T03:14:18.227Z,213.90
2024-01-05T03:16:47.712Z,217.02
2024-01-05T03:19:16.988Z,251.10
2024-01-05T03:21:46.410Z,244.75
2024-01-05T03:24:15.707Z,249.82
2024-01-05T03:26:48.264Z,227.38
2024-01-05T03:29:17.821Z,213.00
2024-01-05T03:31:47.269Z,207.43
2024-01-05T03:34:17.364Z,239.55
2024-01-05T03:36:47.514Z,239.30
2024-01-05T03:39:17.252Z,238.82
2024-01-05T03:41:46.446Z,245.57
2024-01-05T03:44:22.905Z,243.68
2024-01-05T03:46:53.150Z,233.63
2024-01-05T03:49:22.857Z,263.77
2024-01-05T03:51:52.387Z,234.57
2024-01-05T03:54:21.617Z,239.88
2024-01-05T03:56:51.150Z,205.13
2024-01-05T03:59:20.797Z,224.52
2024-01-05T04:01:52.124Z,195.30
2024-01-05T04:04:21.748Z,209.85
2024-01-05T04:06:53.553Z,229.63
2024-01-05T04:09:23.007Z,228.03
2024-01-05T04:11:52.470Z,222.90
2024-01-05T04:14:22.018Z,255.27
2024-01-05T04:16:51.202Z,248.77
2024-01-05T04:19:20.819Z,236.73
2024-01-05T04:21:50.253Z,219.32
2024-01-05T04:24:19.570Z,249.60
2024-01-05T04:26:49.247Z,258.35
2024-01-05T04:29:18.913Z,262.50
2024-01-05T04:31:48.206Z,311.02
2024-01-05T04:34:17.730Z,272.88
2024-01-05T04:36:47.562Z,306.55
2024-01-05T04:39:17.252Z,312.08
2024-01-05T04:41:46.496Z,321.95
2024-01-05T04:44:16.347Z,300.02
2024-01-05T04:46:46.294Z,335.13
2024-01-05T04:49:16.113Z,384.65
2024-01-05T04:51:46.011Z,416.48
2024-01-05T04:54:15.700Z,381.40
2024-01-05T04:56:44.920Z,381.63
2024-01-05T04:59:25.206Z,374.17
2024-01-05T05:01:55.772Z,385.55
2024-01-05T05:04:31.218Z,381.17
2024-01-05T05:09:59.620Z,386.45
2024-01-05T05:12:28.832Z,398.10
2024-01-05T05:15:08.975Z,411.45
2024-01-05T05:17:38.636Z,381.13
2024-01-05T05:20:08.359Z,419.85
2024-01-05T05:22:52.567Z,420.17
2024-01-05T05:25:22.101Z,424.63
2024-01-05T05:27:51.580Z,444.58
2024-01-05T05:30:26.145Z,436.92
2024-01-05T05:32:56.035Z,445.15
2024-01-05T05:35:25.470Z,430.63
2024-01-05T05:37:55.143Z,429.83
2024-01-05T05:41:04.063Z,447.55
2024-01-05T05:43:51.606Z,434.67
2024-01-05T05:46:24.301Z,459.13
2024-01-05T05:48:53.984Z,454.15
2024-01-05T05:51:23.340Z,444.20
2024-01-05T05:53:52.824Z,434.15
2024-01-05T05:56:22.563Z,449.00
2024-01-05T05:58:51.943Z,434.08
2024-01-05T06:01:21.688Z,419.80
2024-01-05T06:03:50.988Z,441.20
2024-01-05T06:06:24.101Z,429.67
2024-01-05T06:08:57.100Z,426.02
2024-01-05T06:11:29.284Z,424.17
2024-01-05T06:13:59.302Z,400.30
2024-01-05T06:16:29.453Z,411.48
2024-01-05T06:18:58.928Z,412.00
2024-01-05T06:21:28.169Z,384.27
2024-01-05T06:23:57.770Z,401.90
2024-01-05T06:26:27.126Z,391.25
2024-01-05T06:28:56.607Z,384.67
2024-01-05T06:31:27.053Z,395.45
2024-01-05T06:33:59.463Z,380.00
2024-01-05T06:36:30.951Z,404.40
2024-01-05T06:39:00.430Z,382.20
2024-01-05T06:41:29.839Z,414.77
2024-01-05T06:44:08.016Z,382.20
2024-01-05T06:46:37.466Z,386.20
2024-01-05T06:49:07.124Z,371.63
2024-01-05T06:51:43.086Z,365.55
2024-01-05T06:54:15.556Z,352.70
2024-01-05T06:56:45.113Z,348.85
2024-01-05T06:59:18.795Z,337.20
2024-01-05T07:01:50.902Z,334.63
2024-01-05T07:04:21.111Z,315.77
2024-01-05T07:06:55.312Z,298.38
2024-01-05T07:09:25.723Z,292.77
2024-01-05T07:11:55.643Z,291.48
2024-01-05T07:14:25.101Z,266.85
2024-01-05T07:16:54.525Z,280.05
2024-01-05T07:19:24.038Z,275.63
2024-01-05T07:21:53.771Z,260.00
2024-01-05T07:24:23.538Z,262.88
2024-01-05T07:26:55.454Z,238.63
2024-01-05T07:29:25.204Z,233.63
2024-01-05T07:31:54.896Z,240.15
2024-01-05T07:34:24.377Z,209.45
2024-01-05T07:36:54.025Z,186.57
2024-01-05T07:39:23.333Z,180.95
2024-01-05T07:41:54.177Z,253.18
2024-01-05T07:44:23.602Z,218.23
2024-01-05T07:46:52.865Z,228.40
2024-01-05T07:49:22.424Z,209.52
2024-01-05T07:51:56.583Z,206.25
2024-01-05T07:54:28.361Z,197.18
2024-01-05T07:56:58.129Z,192.98
2024-01-05T07:59:27.433Z,179.32
2024-01-05T08:01:57.298Z,182.43
2024-01-05T08:04:27.030Z,169.55
2024-01-05T08:06:56.403Z,194.48
2024-01-05T08:09:25.961Z,181.23
2024-01-05T08:11:55.514Z,179.30
2024-01-05T08:14:25.108Z,157.13
2024-01-05T08:16:54.619Z,164.23
2024-01-05T08:19:24.221Z,166.48
2024-01-05T08:21:53.733Z,158.95
2024-01-05T08:24:23.192Z,165.85
2024-01-05T08:26:52.709Z,163.82
2024-01-05T08:29:24.358Z,166.52
2024-01-05T08:31:54.028Z,153.90
2024-01-05T08:34:23.401Z,146.82
2024-01-05T08:36:53.254Z,168.38
2024-01-05T08:39:22.589Z,190.75
2024-01-05T08:41:52.190Z,195.40
2024-01-05T08:44:23.736Z,199.05
2024-01-05T08:46:53.102Z,200.48
2024-01-05T08:49:22.677Z,195.43
2024-01-05T08:51:52.380Z,173.57
2024-01-05T08:54:50.852Z,205.40
2024-01-05T08:57:25.250Z,181.38
2024-01-05T09:00:10.581Z,182.18
2024-01-05T09:02:50.545Z,167.77
2024-01-05T09:05:23.391Z,160.32
2024-01-05T09:07:55.756Z,165.02
2024-01-05T09:10:28.303Z,151.10
2024-01-05T09:12:58.537Z,148.40
2024-01-05T09:15:28.418Z,163.73
2024-01-05T09:18:00.686Z,145.38
2024-01-05T09:20:37.993Z,162.77
2024-01-05T09:23:08.787Z,156.02
2024-01-05T09:25:40.461Z,152.10
2024-01-05T09:30:40.045Z,165.68
2024-01-05T09:33:15.101Z,191.80
2024-01-05T09:35:44.621Z,162.30
2024-01-05T09:38:14.058Z,190.57
2024-01-05T09:40:43.478Z,173.23
2024-01-05T09:43:13.485Z,186.00
2024-01-05T09:45:44.168Z,180.20
2024-01-05T09:48:14.842Z,195.50
2024-01-05T09:50:45.163Z,184.85
2024-01-05T09:53:18.731Z,180.30
2024-01-05T09:55:53.799Z,168.30
2024-01-05T09:58:23.873Z,177.30
2024-01-05T10:00:54.192Z,233.65
2024-01-05T10:03:27.515Z,176.48
2024-01-05T10:05:57.219Z,182.70
2024-01-05T10:08:26.934Z,172.80
2024-01-05T10:10:59.637Z,164.98
2024-01-05T10:13:29.236Z,182.20
2024-01-05T10:15:59.356Z,168.40
2024-01-05T10:18:31.398Z,166.20
2024-01-05T10:21:11.253Z,153.43
2024-01-05T10:23:45.197Z,171.38
2024-01-05T10:26:19.373Z,165.38
2024-01-05T10:28:51.215Z,174.27
2024-01-05T10:31:21.338Z,175.63
2024-01-05T10:33:51.720Z,171.80
2024-01-05T10:36:27.463Z,172.23
2024-01-05T10:38:58.850Z,215.00
2024-01-05T10:41:29.938Z,180.15
2024-01-05T10:44:01.720Z,178.88
2024-01-05T10:46:33.462Z,186.02
2024-01-05T10:49:03.253Z,159.45
2024-01-05T10:51:33.368Z,179.93
2024-01-05T10:54:04.537Z,179.52
2024-01-05T10:56:36.336Z,157.93
2024-01-05T10:59:05.923Z,144.35
2024-01-05T11:01:35.841Z,165.55
2024-01-05T11:04:10.989Z,174.70
2024-01-05T11:06:48.558Z,165.73
2024-01-05T11:09:27.121Z,171.70
2024-01-05T11:12:24.501Z,160.15
2024-01-05T11:14:57.134Z,169.70
2024-01-05T11:17:43.113Z,171.23
2024-01-05T11:20:27.909Z,166.52
2024-01-05T11:22:59.146Z,153.57
2024-01-05T11:25:28.813Z,172.45
2024-01-05T11:27:58.102Z,145.95
2024-01-05T11:30:48.549Z,165.75
2024-01-05T11:33:39.684Z,159.75
2024-01-05T11:36:17.828Z,176.82
2024-01-05T11:38:47.658Z,154.90
2024-01-05T11:41:24.665Z,153.63
2024-01-05T11:43:56.337Z,140.38
2024-01-05T11:46:48.163Z,162.48
2024-01-05T11:49:41.907Z,146.25
2024-01-05T11:52:11.438Z,148.50
2024-01-05T11:54:40.757Z,156.68
2024-01-05T11:57:10.908Z,147.82
2024-01-05T11:59:40.530Z,153.80
2024-01-05T12:02:10.190Z,159.48
2024-01-05T12:04:53.945Z,160.80
2024-01-05T12:07:23.499Z,162.68
2024-01-05T12:09:55.618Z,169.30
2024-01-05T12:12:25.876Z,169.18
2024-01-05T12:14:55.261Z,166.48
2024-01-05T12:17:24.782Z,159.80
2024-01-05T12:20:10.054Z,164.90
2024-01-05T12:22:39.834Z,157.43
2024-01-05T12:25:09.042Z,177.43
2024-01-05T12:27:39.517Z,167.18
2024-01-05T12:30:19.203Z,165.95
2024-01-05T12:32:54.905Z,180.65
2024-01-05T12:35:24.519Z,179.95
2024-01-05T12:37:57.897Z,183.43
2024-01-05T12:40:28.476Z,158.25
2024-01-05T12:42:57.882Z,186.85
2024-01-05T12:45:29.220Z,184.90
2024-01-05T12:47:58.732Z,198.43
2024-01-05T12:50:29.574Z,208.55
2024-01-05T12:52:58.959Z,230.75
2024-01-05T12:55:35.556Z,196.30
2024-01-05T12:58:05.509Z,200.73
2024-01-05T13:00:40.547Z,213.55
2024-01-05T13:03:15.421Z,222.93
2024-01-05T13:05:45.549Z,224.30
2024-01-05T13:08:17.900Z,223.15
2024-01-05T13:10:47.531Z,222.27
2024-01-05T13:13:16.782Z,244.20
2024-01-05T13:15:48.540Z,246.15
2024-01-05T13:18:18.648Z,247.23
2024-01-05T13:20:51.096Z,257.55
2024-01-05T13:25:49.553Z,243.60
2024-01-05T13:28:19.252Z,259.80
2024-01-05T13:30:48.664Z,275.00
2024-01-05T13:33:18.863Z,278.45
2024-01-05T13:35:50.320Z,256.50
2024-01-05T13:38:21.133Z,348.75
2024-01-05T13:40:50.688Z,352.45
2024-01-05T13:43:19.799Z,302.63
2024-01-05T13:45:49.421Z,267.65
2024-01-05T13:48:18.812Z,241.77
2024-01-05T13:50:48.496Z,269.42
2024-01-05T13:53:17.675Z,247.52
2024-01-05T13:55:47.282Z,251.40
2024-01-05T13:58:17.042Z,255.32
2024-01-05T14:00:50.379Z,255.98
2024-01-05T14:03:20.345Z,247.65
2024-01-05T14:05:49.894Z,256.05
2024-01-05T14:08:23.983Z,270.05
2024-01-05T14:10:53.834Z,247.70
2024-01-05T14:13:23.090Z,241.40
2024-01-05T14:15:52.598Z,257.50
2024-01-05T14:18:22.074Z,241.95
2024-01-05T14:20:53.224Z,245.55
2024-01-05T14:23:22.628Z,263.00
2024-01-05T14:25:51.851Z,254.77
2024-01-05T14:28:21.340Z,248.43
2024-01-05T14:30:50.592Z,279.40
2024-01-05T14:33:20.237Z,270.23
2024-01-05T14:35:49.673Z,254.07
2024-01-05T14:38:19.104Z,279.50
2024-01-05T14:40:48.371Z,257.75
2024-01-05T14:43:18.128Z,266.40
2024-01-05T14:45:47.364Z,287.73
2024-01-05T14:48:16.871Z,275.20
2024-01-05T14:50:46.162Z,251.40
2024-01-05T14:53:17.680Z,259.15
2024-01-05T14:55:47.896Z,288.25
2024-01-05T14:58:17.695Z,248.88
2024-01-05T15:00:49.161Z,306.73
2024-01-05T15:03:18.704Z,305.27
2024-01-05T15:05:47.893Z,276.88
2024-01-05T15:08:20.632Z,250.73
2024-01-05T15:10:50.078Z,282.55
2024-01-05T15:13:19.361Z,300.73
2024-01-05T15:15:49.096Z,272.65
2024-01-05T15:18:18.446Z,306.83
2024-01-05T15:20:48.364Z,323.30
2024-01-05T15:23:17.980Z,296.25
2024-01-05T15:25:47.186Z,314.65
2024-01-05T15:28:16.934Z,311.40
2024-01-05T15:30:46.324Z,298.67
2024-01-05T15:33:16.066Z,274.48
2024-01-05T15:35:45.896Z,252.82
2024-01-05T15:38:15.207Z,277.05
2024-01-05T15:40:44.538Z,239.55
2024-01-05T15:43:14.183Z,247.32
2024-01-05T15:45:43.528Z,262.00
2024-01-05T15:48:21.243Z,238.60
2024-01-05T15:50:50.929Z,232.40
2024-01-05T15:53:20.326Z,265.67
2024-01-05T15:55:58.027Z,262.27
2024-01-05T15:58:28.668Z,283.00
2024-01-05T16:00:58.025Z,269.05
2024-01-05T16:03:27.699Z,272.10
2024-01-05T16:05:57.161Z,273.83
2024-01-05T16:08:26.779Z,283.98
2024-01-05T16:10:56.697Z,282.85
2024-01-05T16:13:27.636Z,285.23
2024-01-05T16:16:11.605Z,281.52
2024-01-05T16:19:41.538Z,271.05
2024-01-05T16:22:10.935Z,287.20
2024-01-05T16:24:40.312Z,318.23
2024-01-05T16:27:09.800Z,357.48
2024-01-05T16:29:39.189Z,425.42
2024-01-05T16:32:08.585Z,405.55
2024-01-05T16:34:38.515Z,391.02
2024-01-05T16:37:07.845Z,374.75
2024-01-05T16:39:37.781Z,351.73
2024-01-05T16:42:07.467Z,336.58
2024-01-05T16:44:36.787Z,310.45
2024-01-05T16:47:06.185Z,302.40
2024-01-05T16:49:36.611Z,316.13
2024-01-05T16:52:08.321Z,349.42
2024-01-05T16:54:37.927Z,308.45
2024-01-05T16:57:08.269Z,306.52
2024-01-05T16:59:37.952Z,282.98
2024-01-05T17:02:07.731Z,281.60
2024-01-05T17:04:37.953Z,293.95
2024-01-05T17:07:07.794Z,312.27
2024-01-05T17:09:44.837Z,307.30
2024-01-05T17:12:16.898Z,320.27
2024-01-05T17:14:47.348Z,267.85
2024-01-05T17:17:17.181Z,263.48
2024-01-05T17:19:47.038Z,298.10
2024-01-05T17:22:17.170Z,292.50
2024-01-05T17:24:48.398Z,356.85
2024-01-05T17:27:18.926Z,358.98
2024-01-05T17:29:49.946Z,367.05
2024-01-05T17:32:19.948Z,329.63
2024-01-05T17:34:49.806Z,309.23
2024-01-05T17:37:19.325Z,291.55
2024-01-05T17:39:50.520Z,251.13
2024-01-05T17:42:23.911Z,280.25
2024-01-05T17:44:54.718Z,219.10
2024-01-05T17:47:24.487Z,212.90
2024-01-05T17:49:53.944Z,235.18
2024-01-05T17:52:23.672Z,215.05
2024-01-05T17:54:53.056Z,212.45
2024-01-05T17:57:25.504Z,199.10
2024-01-05T17:59:55.722Z,240.70
2024-01-05T18:02:27.003Z,238.38
2024-01-05T18:04:58.247Z,242.13
2024-01-05T18:07:28.862Z,202.53
2024-01-05T18:09:58.881Z,196.45
2024-01-05T18:12:29.548Z,249.30
2024-01-05T18:14:59.486Z,217.40
2024-01-05T18:17:29.525Z,266.20
2024-01-05T18:19:59.804Z,232.88
2024-01-05T18:22:30.577Z,248.32
2024-01-05T18:25:00.128Z,206.35
2024-01-05T18:27:29.419Z,236.50
2024-01-05T18:30:01.726Z,253.57
2024-01-05T18:32:31.284Z,220.57
2024-01-05T18:35:01.483Z,288.50
2024-01-05T18:37:31.213Z,222.57
2024-01-05T18:40:01.511Z,225.65
2024-01-05T18:42:31.425Z,224.15
2024-01-05T18:45:00.799Z,210.88
2024-01-05T18:47:30.447Z,202.88
2024-01-05T18:50:00.517Z,236.68
2024-01-05T18:52:30.534Z,230.07
2024-01-05T18:54:59.953Z,208.48
2024-01-05T18:57:30.049Z,218.50
2024-01-05T18:59:59.722Z,230.25
2024-01-05T19:02:30.874Z,238.43
2024-01-05T19:05:00.937Z,280.90
2024-01-05T19:07:31.021Z,244.80
2024-01-05T19:10:01.719Z,251.25
2024-01-05T19:12:31.790Z,186.60
2024-01-05T19:15:01.165Z,191.50
2024-01-05T19:17:30.807Z,248.63
2024-01-05T19:20:00.770Z,206.95
2024-01-05T19:22:30.589Z,246.52
2024-01-05T19:25:00.258Z,212.27
2024-01-05T19:27:30.430Z,217.07
2024-01-05T19:30:02.138Z,167.05
2024-01-05T19:32:32.868Z,206.15
2024-01-05T19:35:02.968Z,198.20
2024-01-05T19:37:33.642Z,201.90
2024-01-05T19:40:03.529Z,279.90
2024-01-05T19:42:33.176Z,207.75
2024-01-05T19:45:03.732Z,249.75
2024-01-05T19:47:34.314Z,312.83
2024-01-05T19:50:07.556Z,274.00
2024-01-05T19:52:40.431Z,312.27
2024-01-05T19:55:12.983Z,338.25
2024-01-05T19:57:45.587Z,320.38
2024-01-05T20:00:18.140Z,313.77
2024-01-05T20:02:51.828Z,306.52
2024-01-05T20:05:26.635Z,313.75
2024-01-05T20:08:01.855Z,331.00
2024-01-05T20:10:33.452Z,296.80
2024-01-05T20:13:07.674Z,351.48
2024-01-05T20:15:41.338Z,331.17
2024-01-05T20:18:13.314Z,435.88
2024-01-05T20:20:45.669Z,378.33
2024-01-05T20:23:17.413Z,374.70
2024-01-05T20:25:48.410Z,415.80
2024-01-05T20:28:20.470Z,400.77
2024-01-05T20:30:52.127Z,362.45
2024-01-05T20:33:24.665Z,368.85
2024-01-05T20:38:28.849Z,357.90
2024-01-05T20:41:00.024Z,362.00
2024-01-05T20:43:35.245Z,355.60
2024-01-05T20:46:09.373Z,377.90
2024-01-05T20:48:41.306Z,391.15
2024-01-05T20:51:14.381Z,510.17
2024-01-05T20:53:46.244Z,387.90
2024-01-05T20:56:18.068Z,488.38
2024-01-05T20:58:50.110Z,377.58
2024-01-05T21:01:21.835Z,340.50
2024-01-05T21:03:53.189Z,360.13
2024-01-05T21:06:26.468Z,319.00
2024-01-05T21:08:57.966Z,276.25
2024-01-05T21:11:28.009Z,279.33
2024-01-05T21:13:59.730Z,278.83
2024-01-05T21:16:31.356Z,332.05
2024-01-05T21:19:03.477Z,312.63
2024-01-05T21:24:09.366Z,256.60
2024-01-05T21:26:44.320Z,294.13
2024-01-05T21:29:17.478Z,311.45
2024-01-05T21:31:50.788Z,293.63
2024-01-05T21:34:23.349Z,378.55
2024-01-05T21:36:54.660Z,310.23
2024-01-05T21:39:26.732Z,381.20
2024-01-05T21:41:57.970Z,301.08
2024-01-05T21:44:30.462Z,357.10
2024-01-05T21:47:03.821Z,343.90
2024-01-05T21:49:36.447Z,358.17
2024-01-05T21:52:10.972Z,365.30
2024-01-05T21:54:42.948Z,353.98
2024-01-05T21:57:14.852Z,348.08
2024-01-05T21:59:47.228Z,309.55
2024-01-05T22:02:19.186Z,291.33
2024-01-05T22:04:50.453Z,332.17
2024-01-05T22:07:21.668Z,291.77
2024-01-05T22:09:53.694Z,379.17
2024-01-05T22:12:24.958Z,441.35
2024-01-05T22:14:57.351Z,354.85
2024-01-05T22:17:28.841Z,372.73
2024-01-05T22:20:00.253Z,304.37
2024-01-05T22:22:31.098Z,321.00
2024-01-05T22:25:03.093Z,383.70
2024-01-05T22:27:35.845Z,331.57
2024-01-05T22:30:09.025Z,338.23
2024-01-05T22:32:40.158Z,346.60
2024-01-05T22:35:14.256Z,326.23
2024-01-05T22:37:44.797Z,291.90
2024-01-05T22:40:18.647Z,315.08
2024-01-05T22:42:49.979Z,310.35
2024-01-05T22:45:23.428Z,364.42
2024-01-05T22:47:55.274Z,325.90
2024-01-05T22:50:28.658Z,307.15
2024-01-05T22:52:59.827Z,354.92
2024-01-05T22:55:31.827Z,338.58
2024-01-05T22:58:02.548Z,357.25
2024-01-05T23:00:36.633Z,316.73
2024-01-05T23:03:09.142Z,327.13
2024-01-05T23:05:41.111Z,342.20
2024-01-05T23:08:12.880Z,352.63
2024-01-05T23:10:44.261Z,355.38
2024-01-05T23:13:15.653Z,315.88
2024-01-05T23:15:46.959Z,301.98
2024-01-05T23:18:18.084Z,328.45
2024-01-05T23:20:50.044Z,355.38
2024-01-05T23:23:21.392Z,314.15
2024-01-05T23:25:53.466Z,325.67
2024-01-05T23:28:24.767Z,356.30
2024-01-05T23:30:57.549Z,352.58
2024-01-05T23:33:28.774Z,354.10
2024-01-05T23:38:31.238Z,318.98
2024-01-05T23:41:03.341Z,340.38
2024-01-05T23:43:34.671Z,337.42
2024-01-05T23:46:06.006Z,342.00
2024-01-05T23:48:38.215Z,363.73
2024-01-05T23:51:09.927Z,315.63
2024-01-05T23:53:41.315Z,349.85
2024-01-05T23:56:13.290Z,363.75
2024-01-05T23:58:44.622Z,340.67
